sensor_id;sensor_type;location;lat;lon;timestamp;P1;durP1;ratioP1;P2;durP2;ratioP2
68583;SDS011;55557;49.220;11.150;2022-09-17T00:00:17;1.23;;;1.03;;
68583;SDS011;55557;49.220;11.150;2022-09-17T00:02:43;1.83;;;1.20;;
68583;SDS011;55557;49.220;11.150;2022-09-17T00:05:11;0.90;;;0.90;;
68583;SDS011;55557;49.220;11.150;2022-09-17T00:07:37;1.73;;;0.87;;
68583;SDS011;55557;49.220;11.150;2022-09-17T00:10:03;0.80;;;0.80;;
68583;SDS011;55557;49.220;11.150;2022-09-17T00:12:30;1.87;;;0.90;;
68583;SDS011;55557;49.220;11.150;2022-09-17T00:14:56;5.20;;;1.17;;
68583;SDS011;55557;49.220;11.150;2022-09-17T00:17:22;2.20;;;0.90;;
68583;SDS011;55557;49.220;11.150;2022-09-17T00:19:48;1.33;;;1.00;;
68583;SDS011;55557;49.220;11.150;2022-09-17T00:22:14;2.63;;;1.10;;
68583;SDS011;55557;49.220;11.150;2022-09-17T00:24:40;2.20;;;0.73;;
68583;SDS011;55557;49.220;11.150;2022-09-17T00:27:06;3.20;;;1.07;;
68583;SDS011;55557;49.220;11.150;2022-09-17T00:29:32;2.20;;;0.73;;
68583;SDS011;55557;49.220;11.150;2022-09-17T00:31:58;3.73;;;1.13;;
68583;SDS011;55557;49.220;11.150;2022-09-17T00:34:24;1.10;;;1.00;;
68583;SDS011;55557;49.220;11.150;2022-09-17T00:36:50;2.27;;;0.87;;
68583;SDS011;55557;49.220;11.150;2022-09-17T00:39:16;5.33;;;1.20;;
68583;SDS011;55557;49.220;11.150;2022-09-17T00:41:42;0.90;;;0.70;;
68583;SDS011;55557;49.220;11.150;2022-09-17T00:46:53;0.93;;;0.87;;
68583;SDS011;55557;49.220;11.150;2022-09-17T00:49:20;3.03;;;1.30;;
68583;SDS011;55557;49.220;11.150;2022-09-17T00:54:16;3.73;;;1.20;;
68583;SDS011;55557;49.220;11.150;2022-09-17T00:56:42;9.23;;;1.30;;
68583;SDS011;55557;49.220;11.150;2022-09-17T00:59:08;1.37;;;1.00;;
68583;SDS011;55557;49.220;11.150;2022-09-17T01:01:34;2.33;;;0.90;;
68583;SDS011;55557;49.220;11.150;2022-09-17T01:04:01;1.10;;;1.00;;
68583;SDS011;55557;49.220;11.150;2022-09-17T01:09:12;4.30;;;1.40;;
68583;SDS011;55557;49.220;11.150;2022-09-17T01:11:44;3.00;;;1.10;;
68583;SDS011;55557;49.220;11.150;2022-09-17T01:14:25;1.73;;;1.40;;
68583;SDS011;55557;49.220;11.150;2022-09-17T01:17:05;1.77;;;1.17;;
68583;SDS011;55557;49.220;11.150;2022-09-17T01:19:51;1.80;;;1.20;;
68583;SDS011;55557;49.220;11.150;2022-09-17T01:22:32;4.07;;;1.40;;
68583;SDS011;55557;49.220;11.150;2022-09-17T01:25:10;1.43;;;1.20;;
68583;SDS011;55557;49.220;11.150;2022-09-17T01:30:19;3.27;;;1.57;;
68583;SDS011;55557;49.220;11.150;2022-09-17T01:32:52;3.83;;;1.53;;
68583;SDS011;55557;49.220;11.150;2022-09-17T01:40:25;7.60;;;2.20;;
68583;SDS011;55557;49.220;11.150;2022-09-17T01:48:08;5.20;;;2.47;;
68583;SDS011;55557;49.220;11.150;2022-09-17T01:50:36;2.27;;;1.70;;
68583;SDS011;55557;49.220;11.150;2022-09-17T01:53:04;3.60;;;2.03;;
68583;SDS011;55557;49.220;11.150;2022-09-17T01:55:32;4.77;;;2.20;;
68583;SDS011;55557;49.220;11.150;2022-09-17T02:00:26;3.37;;;2.60;;
68583;SDS011;55557;49.220;11.150;2022-09-17T02:02:55;6.07;;;2.73;;
68583;SDS011;55557;49.220;11.150;2022-09-17T02:05:23;3.97;;;1.70;;
68583;SDS011;55557;49.220;11.150;2022-09-17T02:07:58;5.73;;;1.97;;
68583;SDS011;55557;49.220;11.150;2022-09-17T02:10:29;3.63;;;1.83;;
68583;SDS011;55557;49.220;11.150;2022-09-17T02:12:59;2.80;;;2.13;;
68583;SDS011;55557;49.220;11.150;2022-09-17T02:15:27;8.40;;;2.37;;
68583;SDS011;55557;49.220;11.150;2022-09-17T02:18:09;5.13;;;2.33;;
68583;SDS011;55557;49.220;11.150;2022-09-17T02:20:42;7.37;;;1.77;;
68583;SDS011;55557;49.220;11.150;2022-09-17T02:23:15;6.03;;;2.20;;
68583;SDS011;55557;49.220;11.150;2022-09-17T02:25:49;3.67;;;2.50;;
68583;SDS011;55557;49.220;11.150;2022-09-17T02:28:19;3.63;;;1.93;;
68583;SDS011;55557;49.220;11.150;2022-09-17T02:30:49;8.50;;;2.50;;
68583;SDS011;55557;49.220;11.150;2022-09-17T02:33:15;5.00;;;2.40;;
68583;SDS011;55557;49.220;11.150;2022-09-17T02:35:42;2.67;;;2.17;;
68583;SDS011;55557;49.220;11.150;2022-09-17T02:38:09;2.10;;;1.90;;
68583;SDS011;55557;49.220;11.150;2022-09-17T02:40:37;4.17;;;2.27;;
68583;SDS011;55557;49.220;11.150;2022-09-17T02:48:23;7.43;;;2.53;;
68583;SDS011;55557;49.220;11.150;2022-09-17T02:51:02;4.67;;;2.57;;
68583;SDS011;55557;49.220;11.150;2022-09-17T02:53:39;6.70;;;2.60;;
68583;SDS011;55557;49.220;11.150;2022-09-17T02:56:14;5.47;;;2.93;;
68583;SDS011;55557;49.220;11.150;2022-09-17T02:58:49;6.90;;;2.00;;
68583;SDS011;55557;49.220;11.150;2022-09-17T03:01:24;6.57;;;2.00;;
68583;SDS011;55557;49.220;11.150;2022-09-17T03:03:53;5.00;;;2.53;;
68583;SDS011;55557;49.220;11.150;2022-09-17T03:06:19;4.37;;;2.47;;
68583;SDS011;55557;49.220;11.150;2022-09-17T03:08:45;4.30;;;2.50;;
68583;SDS011;55557;49.220;11.150;2022-09-17T03:11:11;5.33;;;2.30;;
68583;SDS011;55557;49.220;11.150;2022-09-17T03:13:37;4.27;;;2.83;;
68583;SDS011;55557;49.220;11.150;2022-09-17T03:16:04;7.57;;;2.27;;
68583;SDS011;55557;49.220;11.150;2022-09-17T03:18:30;7.03;;;2.60;;
68583;SDS011;55557;49.220;11.150;2022-09-17T03:20:57;5.50;;;2.20;;
68583;SDS011;55557;49.220;11.150;2022-09-17T03:23:23;5.77;;;2.73;;
68583;SDS011;55557;49.220;11.150;2022-09-17T03:25:49;6.03;;;2.63;;
68583;SDS011;55557;49.220;11.150;2022-09-17T03:28:15;8.17;;;2.77;;
68583;SDS011;55557;49.220;11.150;2022-09-17T03:30:45;5.83;;;2.23;;
68583;SDS011;55557;49.220;11.150;2022-09-17T03:33:11;4.93;;;1.97;;
68583;SDS011;55557;49.220;11.150;2022-09-17T03:35:41;4.13;;;2.30;;
68583;SDS011;55557;49.220;11.150;2022-09-17T03:38:07;11.40;;;2.73;;
68583;SDS011;55557;49.220;11.150;2022-09-17T03:40:33;6.43;;;2.80;;
68583;SDS011;55557;49.220;11.150;2022-09-17T03:42:59;4.40;;;2.20;;
68583;SDS011;55557;49.220;11.150;2022-09-17T03:45:36;5.03;;;2.17;;
68583;SDS011;55557;49.220;11.150;2022-09-17T03:48:02;4.63;;;2.07;;
68583;SDS011;55557;49.220;11.150;2022-09-17T03:50:28;5.20;;;2.30;;
68583;SDS011;55557;49.220;11.150;2022-09-17T03:52:54;4.40;;;2.30;;
68583;SDS011;55557;49.220;11.150;2022-09-17T03:55:20;4.97;;;1.87;;
68583;SDS011;55557;49.220;11.150;2022-09-17T03:57:46;8.07;;;2.50;;
68583;SDS011;55557;49.220;11.150;2022-09-17T04:00:12;3.70;;;2.13;;
68583;SDS011;55557;49.220;11.150;2022-09-17T04:02:41;3.80;;;1.67;;
68583;SDS011;55557;49.220;11.150;2022-09-17T04:05:07;3.30;;;1.70;;
68583;SDS011;55557;49.220;11.150;2022-09-17T04:07:34;7.60;;;1.93;;
68583;SDS011;55557;49.220;11.150;2022-09-17T04:10:00;8.40;;;1.93;;
68583;SDS011;55557;49.220;11.150;2022-09-17T04:12:26;9.73;;;2.10;;
68583;SDS011;55557;49.220;11.150;2022-09-17T04:14:52;5.73;;;2.50;;
68583;SDS011;55557;49.220;11.150;2022-09-17T04:17:18;11.07;;;2.53;;
68583;SDS011;55557;49.220;11.150;2022-09-17T04:19:44;9.47;;;5.67;;
68583;SDS011;55557;49.220;11.150;2022-09-17T04:22:10;7.20;;;2.50;;
68583;SDS011;55557;49.220;11.150;2022-09-17T04:24:36;7.47;;;2.10;;
68583;SDS011;55557;49.220;11.150;2022-09-17T04:27:02;7.83;;;2.10;;
68583;SDS011;55557;49.220;11.150;2022-09-17T04:29:27;3.60;;;1.60;;
68583;SDS011;55557;49.220;11.150;2022-09-17T04:31:54;13.93;;;2.43;;
68583;SDS011;55557;49.220;11.150;2022-09-17T04:34:20;6.30;;;1.70;;
68583;SDS011;55557;49.220;11.150;2022-09-17T04:36:46;8.37;;;2.17;;
68583;SDS011;55557;49.220;11.150;2022-09-17T04:39:12;4.43;;;1.90;;
68583;SDS011;55557;49.220;11.150;2022-09-17T04:41:38;9.87;;;2.33;;
68583;SDS011;55557;49.220;11.150;2022-09-17T04:44:04;5.97;;;2.20;;
68583;SDS011;55557;49.220;11.150;2022-09-17T04:46:31;2.80;;;1.60;;
68583;SDS011;55557;49.220;11.150;2022-09-17T04:48:57;2.60;;;1.63;;
68583;SDS011;55557;49.220;11.150;2022-09-17T04:51:23;5.43;;;1.97;;
68583;SDS011;55557;49.220;11.150;2022-09-17T04:53:49;5.60;;;1.53;;
68583;SDS011;55557;49.220;11.150;2022-09-17T04:56:15;4.03;;;2.23;;
68583;SDS011;55557;49.220;11.150;2022-09-17T04:58:41;8.13;;;2.33;;
68583;SDS011;55557;49.220;11.150;2022-09-17T05:01:07;5.50;;;1.77;;
68583;SDS011;55557;49.220;11.150;2022-09-17T05:03:33;5.27;;;2.03;;
68583;SDS011;55557;49.220;11.150;2022-09-17T05:05:58;4.10;;;1.30;;
68583;SDS011;55557;49.220;11.150;2022-09-17T05:08:24;8.37;;;1.70;;
68583;SDS011;55557;49.220;11.150;2022-09-17T05:10:50;8.43;;;1.97;;
68583;SDS011;55557;49.220;11.150;2022-09-17T05:13:17;4.93;;;1.67;;
68583;SDS011;55557;49.220;11.150;2022-09-17T05:15:43;6.40;;;1.77;;
68583;SDS011;55557;49.220;11.150;2022-09-17T05:18:09;4.53;;;1.83;;
68583;SDS011;55557;49.220;11.150;2022-09-17T05:20:35;6.50;;;2.60;;
68583;SDS011;55557;49.220;11.150;2022-09-17T05:23:01;3.63;;;2.07;;
68583;SDS011;55557;49.220;11.150;2022-09-17T05:25:27;5.97;;;2.13;;
68583;SDS011;55557;49.220;11.150;2022-09-17T05:27:53;8.87;;;2.10;;
68583;SDS011;55557;49.220;11.150;2022-09-17T05:30:20;7.07;;;1.90;;
68583;SDS011;55557;49.220;11.150;2022-09-17T05:32:46;4.30;;;1.20;;
68583;SDS011;55557;49.220;11.150;2022-09-17T05:35:12;7.57;;;1.97;;
68583;SDS011;55557;49.220;11.150;2022-09-17T05:37:39;5.53;;;1.90;;
68583;SDS011;55557;49.220;11.150;2022-09-17T05:40:05;11.07;;;2.03;;
68583;SDS011;55557;49.220;11.150;2022-09-17T05:42:31;4.10;;;1.47;;
68583;SDS011;55557;49.220;11.150;2022-09-17T05:44:57;3.47;;;1.27;;
68583;SDS011;55557;49.220;11.150;2022-09-17T05:47:24;5.77;;;2.00;;
68583;SDS011;55557;49.220;11.150;2022-09-17T05:49:50;5.97;;;2.07;;
68583;SDS011;55557;49.220;11.150;2022-09-17T05:52:16;4.13;;;1.90;;
68583;SDS011;55557;49.220;11.150;2022-09-17T05:54:43;3.97;;;1.93;;
68583;SDS011;55557;49.220;11.150;2022-09-17T05:57:09;3.77;;;2.07;;
68583;SDS011;55557;49.220;11.150;2022-09-17T05:59:35;8.13;;;2.10;;
68583;SDS011;55557;49.220;11.150;2022-09-17T06:02:01;7.70;;;1.90;;
68583;SDS011;55557;49.220;11.150;2022-09-17T06:04:27;6.30;;;1.63;;
68583;SDS011;55557;49.220;11.150;2022-09-17T06:06:53;2.87;;;2.17;;
68583;SDS011;55557;49.220;11.150;2022-09-17T06:09:19;4.00;;;1.60;;
68583;SDS011;55557;49.220;11.150;2022-09-17T06:11:45;6.57;;;1.73;;
68583;SDS011;55557;49.220;11.150;2022-09-17T06:14:11;5.95;;;2.00;;
68583;SDS011;55557;49.220;11.150;2022-09-17T06:16:37;5.73;;;1.87;;
68583;SDS011;55557;49.220;11.150;2022-09-17T06:19:03;8.70;;;2.03;;
68583;SDS011;55557;49.220;11.150;2022-09-17T06:21:29;7.50;;;2.07;;
68583;SDS011;55557;49.220;11.150;2022-09-17T06:23:55;8.70;;;1.70;;
68583;SDS011;55557;49.220;11.150;2022-09-17T06:26:21;3.97;;;1.87;;
68583;SDS011;55557;49.220;11.150;2022-09-17T06:28:47;5.10;;;1.23;;
68583;SDS011;55557;49.220;11.150;2022-09-17T06:31:13;4.03;;;1.50;;
68583;SDS011;55557;49.220;11.150;2022-09-17T06:33:39;2.30;;;1.30;;
68583;SDS011;55557;49.220;11.150;2022-09-17T06:36:06;3.63;;;1.50;;
68583;SDS011;55557;49.220;11.150;2022-09-17T06:38:33;1.63;;;1.47;;
68583;SDS011;55557;49.220;11.150;2022-09-17T06:41:00;5.13;;;1.57;;
68583;SDS011;55557;49.220;11.150;2022-09-17T06:43:26;1.13;;;0.90;;
68583;SDS011;55557;49.220;11.150;2022-09-17T06:45:53;3.50;;;1.20;;
68583;SDS011;55557;49.220;11.150;2022-09-17T06:48:19;3.37;;;1.30;;
68583;SDS011;55557;49.220;11.150;2022-09-17T06:50:46;1.40;;;1.20;;
68583;SDS011;55557;49.220;11.150;2022-09-17T06:53:12;4.23;;;1.40;;
68583;SDS011;55557;49.220;11.150;2022-09-17T06:55:38;4.23;;;1.07;;
68583;SDS011;55557;49.220;11.150;2022-09-17T06:58:04;4.17;;;1.40;;
68583;SDS011;55557;49.220;11.150;2022-09-17T07:00:30;3.03;;;1.27;;
68583;SDS011;55557;49.220;11.150;2022-09-17T07:02:56;1.70;;;1.10;;
68583;SDS011;55557;49.220;11.150;2022-09-17T07:05:23;1.33;;;0.90;;
68583;SDS011;55557;49.220;11.150;2022-09-17T07:07:49;1.40;;;1.30;;
68583;SDS011;55557;49.220;11.150;2022-09-17T07:10:15;2.63;;;1.20;;
68583;SDS011;55557;49.220;11.150;2022-09-17T07:12:41;1.67;;;1.40;;
68583;SDS011;55557;49.220;11.150;2022-09-17T07:15:07;3.67;;;1.70;;
68583;SDS011;55557;49.220;11.150;2022-09-17T07:17:37;2.60;;;1.77;;
68583;SDS011;55557;49.220;11.150;2022-09-17T07:20:05;4.27;;;1.90;;
68583;SDS011;55557;49.220;11.150;2022-09-17T07:22:31;3.80;;;1.50;;
68583;SDS011;55557;49.220;11.150;2022-09-17T07:24:57;6.07;;;1.80;;
68583;SDS011;55557;49.220;11.150;2022-09-17T07:27:25;2.30;;;2.10;;
68583;SDS011;55557;49.220;11.150;2022-09-17T07:29:51;5.20;;;1.70;;
68583;SDS011;55557;49.220;11.150;2022-09-17T07:32:17;3.40;;;1.50;;
68583;SDS011;55557;49.220;11.150;2022-09-17T07:34:43;1.83;;;1.33;;
68583;SDS011;55557;49.220;11.150;2022-09-17T07:37:09;2.13;;;1.00;;
68583;SDS011;55557;49.220;11.150;2022-09-17T07:39:35;2.13;;;1.10;;
68583;SDS011;55557;49.220;11.150;2022-09-17T07:42:01;5.70;;;1.60;;
68583;SDS011;55557;49.220;11.150;2022-09-17T07:44:28;3.70;;;1.50;;
68583;SDS011;55557;49.220;11.150;2022-09-17T07:46:54;4.00;;;1.27;;
68583;SDS011;55557;49.220;11.150;2022-09-17T07:49:20;1.30;;;1.13;;
68583;SDS011;55557;49.220;11.150;2022-09-17T07:51:46;2.20;;;1.43;;
68583;SDS011;55557;49.220;11.150;2022-09-17T07:54:12;1.93;;;0.93;;
68583;SDS011;55557;49.220;11.150;2022-09-17T07:56:38;3.67;;;1.30;;
68583;SDS011;55557;49.220;11.150;2022-09-17T07:59:04;2.83;;;1.00;;
68583;SDS011;55557;49.220;11.150;2022-09-17T08:01:31;3.73;;;1.40;;
68583;SDS011;55557;49.220;11.150;2022-09-17T08:04:03;4.10;;;1.43;;
68583;SDS011;55557;49.220;11.150;2022-09-17T08:06:30;1.47;;;1.20;;
68583;SDS011;55557;49.220;11.150;2022-09-17T08:08:57;3.10;;;1.30;;
68583;SDS011;55557;49.220;11.150;2022-09-17T08:11:25;9.93;;;1.80;;
68583;SDS011;55557;49.220;11.150;2022-09-17T08:13:52;2.67;;;1.40;;
68583;SDS011;55557;49.220;11.150;2022-09-17T08:16:18;1.40;;;1.30;;
68583;SDS011;55557;49.220;11.150;2022-09-17T08:18:45;1.73;;;1.37;;
68583;SDS011;55557;49.220;11.150;2022-09-17T08:21:13;2.30;;;1.33;;
68583;SDS011;55557;49.220;11.150;2022-09-17T08:23:39;2.13;;;1.60;;
68583;SDS011;55557;49.220;11.150;2022-09-17T08:26:06;4.27;;;1.20;;
68583;SDS011;55557;49.220;11.150;2022-09-17T08:28:33;3.03;;;1.53;;
68583;SDS011;55557;49.220;11.150;2022-09-17T08:31:00;1.93;;;1.57;;
68583;SDS011;55557;49.220;11.150;2022-09-17T08:33:29;3.00;;;1.70;;
68583;SDS011;55557;49.220;11.150;2022-09-17T08:35:55;2.30;;;1.30;;
68583;SDS011;55557;49.220;11.150;2022-09-17T08:38:27;2.10;;;1.33;;
68583;SDS011;55557;49.220;11.150;2022-09-17T08:46:24;5.60;;;1.50;;
68583;SDS011;55557;49.220;11.150;2022-09-17T08:57:13;1.90;;;1.67;;
68583;SDS011;55557;49.220;11.150;2022-09-17T09:00:24;2.30;;;2.00;;
68583;SDS011;55557;49.220;11.150;2022-09-17T09:05:30;4.97;;;1.53;;
68583;SDS011;55557;49.220;11.150;2022-09-17T09:07:50;5.70;;;2.07;;
68583;SDS011;55557;49.220;11.150;2022-09-17T09:10:24;5.53;;;1.90;;
68583;SDS011;55557;49.220;11.150;2022-09-17T09:12:51;5.37;;;1.97;;
68583;SDS011;55557;49.220;11.150;2022-09-17T09:18:05;5.87;;;3.27;;
68583;SDS011;55557;49.220;11.150;2022-09-17T09:31:03;8.53;;;3.37;;
68583;SDS011;55557;49.220;11.150;2022-09-17T09:33:34;7.47;;;2.90;;
68583;SDS011;55557;49.220;11.150;2022-09-17T09:36:02;10.23;;;2.60;;
68583;SDS011;55557;49.220;11.150;2022-09-17T09:38:39;6.80;;;3.53;;
68583;SDS011;55557;49.220;11.150;2022-09-17T09:41:09;8.27;;;3.83;;
68583;SDS011;55557;49.220;11.150;2022-09-17T09:43:46;4.23;;;3.20;;
68583;SDS011;55557;49.220;11.150;2022-09-17T09:46:16;10.00;;;3.63;;
68583;SDS011;55557;49.220;11.150;2022-09-17T09:57:07;11.10;;;4.60;;
68583;SDS011;55557;49.220;11.150;2022-09-17T09:59:28;10.77;;;2.93;;
68583;SDS011;55557;49.220;11.150;2022-09-17T10:01:54;12.83;;;3.43;;
68583;SDS011;55557;49.220;11.150;2022-09-17T10:04:21;10.67;;;3.67;;
68583;SDS011;55557;49.220;11.150;2022-09-17T10:06:48;11.90;;;3.63;;
68583;SDS011;55557;49.220;11.150;2022-09-17T10:09:15;10.47;;;3.70;;
68583;SDS011;55557;49.220;11.150;2022-09-17T10:11:57;10.20;;;3.60;;
68583;SDS011;55557;49.220;11.150;2022-09-17T10:14:24;8.40;;;4.03;;
68583;SDS011;55557;49.220;11.150;2022-09-17T10:22:34;8.13;;;3.37;;
68583;SDS011;55557;49.220;11.150;2022-09-17T10:25:02;10.00;;;3.57;;
68583;SDS011;55557;49.220;11.150;2022-09-17T10:27:30;8.13;;;3.17;;
68583;SDS011;55557;49.220;11.150;2022-09-17T10:30:01;9.10;;;3.50;;
68583;SDS011;55557;49.220;11.150;2022-09-17T10:32:27;7.40;;;3.63;;
68583;SDS011;55557;49.220;11.150;2022-09-17T10:34:58;9.73;;;3.77;;
68583;SDS011;55557;49.220;11.150;2022-09-17T10:37:57;10.60;;;3.97;;
68583;SDS011;55557;49.220;11.150;2022-09-17T10:42:42;11.60;;;3.87;;
68583;SDS011;55557;49.220;11.150;2022-09-17T10:45:11;8.57;;;2.90;;
68583;SDS011;55557;49.220;11.150;2022-09-17T10:47:48;4.60;;;2.93;;
68583;SDS011;55557;49.220;11.150;2022-09-17T10:52:45;11.00;;;2.93;;
68583;SDS011;55557;49.220;11.150;2022-09-17T10:55:31;11.97;;;4.07;;
68583;SDS011;55557;49.220;11.150;2022-09-17T11:00:40;15.47;;;3.63;;
68583;SDS011;55557;49.220;11.150;2022-09-17T11:06:17;17.97;;;4.97;;
68583;SDS011;55557;49.220;11.150;2022-09-17T11:08:29;8.43;;;3.57;;
68583;SDS011;55557;49.220;11.150;2022-09-17T11:11:10;12.60;;;3.90;;
68583;SDS011;55557;49.220;11.150;2022-09-17T11:16:18;7.33;;;3.03;;
68583;SDS011;55557;49.220;11.150;2022-09-17T11:18:50;14.33;;;3.60;;
68583;SDS011;55557;49.220;11.150;2022-09-17T11:32:00;5.87;;;2.93;;
68583;SDS011;55557;49.220;11.150;2022-09-17T11:37:15;15.07;;;6.73;;
68583;SDS011;55557;49.220;11.150;2022-09-17T11:42:15;8.97;;;4.67;;
68583;SDS011;55557;49.220;11.150;2022-09-17T11:47:17;11.33;;;3.17;;
68583;SDS011;55557;49.220;11.150;2022-09-17T11:49:48;9.60;;;3.10;;
68583;SDS011;55557;49.220;11.150;2022-09-17T11:52:20;9.80;;;2.93;;
68583;SDS011;55557;49.220;11.150;2022-09-17T11:57:18;6.80;;;2.67;;
68583;SDS011;55557;49.220;11.150;2022-09-17T12:03:03;8.17;;;2.57;;
68583;SDS011;55557;49.220;11.150;2022-09-17T12:07:53;5.10;;;2.60;;
68583;SDS011;55557;49.220;11.150;2022-09-17T12:13:38;6.63;;;2.07;;
68583;SDS011;55557;49.220;11.150;2022-09-17T12:15:37;7.53;;;2.00;;
68583;SDS011;55557;49.220;11.150;2022-09-17T12:20:43;3.23;;;2.40;;
68583;SDS011;55557;49.220;11.150;2022-09-17T12:23:10;7.50;;;2.67;;
68583;SDS011;55557;49.220;11.150;2022-09-17T12:25:46;5.17;;;2.67;;
68583;SDS011;55557;49.220;11.150;2022-09-17T12:28:18;8.07;;;2.60;;
68583;SDS011;55557;49.220;11.150;2022-09-17T12:30:49;4.63;;;2.03;;
68583;SDS011;55557;49.220;11.150;2022-09-17T12:33:20;2.87;;;1.43;;
68583;SDS011;55557;49.220;11.150;2022-09-17T12:52:02;1.60;;;1.20;;
68583;SDS011;55557;49.220;11.150;2022-09-17T12:57:25;4.57;;;1.87;;
68583;SDS011;55557;49.220;11.150;2022-09-17T12:59:55;2.77;;;1.30;;
68583;SDS011;55557;49.220;11.150;2022-09-17T13:05:13;4.37;;;2.00;;
68583;SDS011;55557;49.220;11.150;2022-09-17T13:18:15;4.50;;;1.27;;
68583;SDS011;55557;49.220;11.150;2022-09-17T13:20:48;5.40;;;1.57;;
68583;SDS011;55557;49.220;11.150;2022-09-17T13:23:27;2.20;;;1.53;;
68583;SDS011;55557;49.220;11.150;2022-09-17T13:25:53;5.10;;;1.60;;
68583;SDS011;55557;49.220;11.150;2022-09-17T13:28:19;2.97;;;1.33;;
68583;SDS011;55557;49.220;11.150;2022-09-17T13:31:19;5.67;;;1.33;;
68583;SDS011;55557;49.220;11.150;2022-09-17T13:33:59;5.03;;;1.70;;
68583;SDS011;55557;49.220;11.150;2022-09-17T13:38:59;3.30;;;1.40;;
68583;SDS011;55557;49.220;11.150;2022-09-17T13:41:26;5.80;;;2.00;;
68583;SDS011;55557;49.220;11.150;2022-09-17T13:43:53;2.93;;;1.47;;
68583;SDS011;55557;49.220;11.150;2022-09-17T13:46:26;3.40;;;1.40;;
68583;SDS011;55557;49.220;11.150;2022-09-17T13:48:57;4.73;;;1.50;;
68583;SDS011;55557;49.220;11.150;2022-09-17T13:53:57;2.30;;;1.40;;
68583;SDS011;55557;49.220;11.150;2022-09-17T13:56:28;3.63;;;1.23;;
68583;SDS011;55557;49.220;11.150;2022-09-17T13:59:03;3.53;;;1.40;;
68583;SDS011;55557;49.220;11.150;2022-09-17T14:06:56;25.37;;;2.37;;
68583;SDS011;55557;49.220;11.150;2022-09-17T14:09:30;5.20;;;2.17;;
68583;SDS011;55557;49.220;11.150;2022-09-17T14:11:56;2.70;;;1.83;;
68583;SDS011;55557;49.220;11.150;2022-09-17T14:14:33;6.50;;;2.40;;
68583;SDS011;55557;49.220;11.150;2022-09-17T14:17:03;5.30;;;2.00;;
68583;SDS011;55557;49.220;11.150;2022-09-17T14:19:33;2.87;;;1.57;;
68583;SDS011;55557;49.220;11.150;2022-09-17T14:22:11;4.10;;;1.50;;
68583;SDS011;55557;49.220;11.150;2022-09-17T14:24:43;3.10;;;1.43;;
68583;SDS011;55557;49.220;11.150;2022-09-17T14:29:52;3.43;;;1.77;;
68583;SDS011;55557;49.220;11.150;2022-09-17T14:32:26;2.00;;;1.70;;
68583;SDS011;55557;49.220;11.150;2022-09-17T14:34:54;1.50;;;1.40;;
68583;SDS011;55557;49.220;11.150;2022-09-17T14:37:21;2.20;;;1.63;;
68583;SDS011;55557;49.220;11.150;2022-09-17T14:39:48;1.63;;;1.53;;
68583;SDS011;55557;49.220;11.150;2022-09-17T14:42:27;2.90;;;1.13;;
68583;SDS011;55557;49.220;11.150;2022-09-17T14:45:03;1.27;;;1.17;;
68583;SDS011;55557;49.220;11.150;2022-09-17T14:47:31;1.87;;;0.90;;
68583;SDS011;55557;49.220;11.150;2022-09-17T14:50:16;2.70;;;1.63;;
68583;SDS011;55557;49.220;11.150;2022-09-17T14:52:46;2.83;;;1.30;;
68583;SDS011;55557;49.220;11.150;2022-09-17T14:55:31;4.03;;;1.30;;
68583;SDS011;55557;49.220;11.150;2022-09-17T14:57:58;10.33;;;1.33;;
68583;SDS011;55557;49.220;11.150;2022-09-17T15:00:32;2.67;;;1.50;;
68583;SDS011;55557;49.220;11.150;2022-09-17T15:02:58;4.30;;;1.90;;
68583;SDS011;55557;49.220;11.150;2022-09-17T15:13:24;1.80;;;1.27;;
68583;SDS011;55557;49.220;11.150;2022-09-17T15:15:52;1.33;;;1.00;;
68583;SDS011;55557;49.220;11.150;2022-09-17T15:18:19;2.80;;;1.33;;
68583;SDS011;55557;49.220;11.150;2022-09-17T15:20:46;4.77;;;1.40;;
68583;SDS011;55557;49.220;11.150;2022-09-17T15:23:22;3.93;;;1.60;;
68583;SDS011;55557;49.220;11.150;2022-09-17T15:25:50;4.43;;;1.93;;
68583;SDS011;55557;49.220;11.150;2022-09-17T15:28:27;4.70;;;2.40;;
68583;SDS011;55557;49.220;11.150;2022-09-17T15:30:54;6.37;;;3.17;;
68583;SDS011;55557;49.220;11.150;2022-09-17T15:33:20;8.30;;;2.80;;
68583;SDS011;55557;49.220;11.150;2022-09-17T15:36:22;7.97;;;3.70;;
68583;SDS011;55557;49.220;11.150;2022-09-17T15:38:40;4.50;;;3.17;;
68583;SDS011;55557;49.220;11.150;2022-09-17T15:43:48;10.73;;;3.63;;
68583;SDS011;55557;49.220;11.150;2022-09-17T15:46:24;5.30;;;3.50;;
68583;SDS011;55557;49.220;11.150;2022-09-17T15:48:51;7.93;;;3.00;;
68583;SDS011;55557;49.220;11.150;2022-09-17T15:51:25;11.90;;;2.43;;
68583;SDS011;55557;49.220;11.150;2022-09-17T15:53:52;3.80;;;1.80;;
68583;SDS011;55557;49.220;11.150;2022-09-17T15:56:21;6.67;;;2.37;;
68583;SDS011;55557;49.220;11.150;2022-09-17T16:11:18;4.83;;;2.37;;
68583;SDS011;55557;49.220;11.150;2022-09-17T16:13:47;4.80;;;1.13;;
68583;SDS011;55557;49.220;11.150;2022-09-17T16:16:15;5.60;;;1.37;;
68583;SDS011;55557;49.220;11.150;2022-09-17T16:18:41;1.60;;;1.30;;
68583;SDS011;55557;49.220;11.150;2022-09-17T16:21:09;4.33;;;1.80;;
68583;SDS011;55557;49.220;11.150;2022-09-17T16:23:35;3.70;;;1.13;;
68583;SDS011;55557;49.220;11.150;2022-09-17T16:26:01;4.73;;;1.27;;
68583;SDS011;55557;49.220;11.150;2022-09-17T16:28:27;2.63;;;1.03;;
68583;SDS011;55557;49.220;11.150;2022-09-17T16:30:53;1.13;;;0.90;;
68583;SDS011;55557;49.220;11.150;2022-09-17T16:33:20;3.83;;;1.63;;
68583;SDS011;55557;49.220;11.150;2022-09-17T16:35:46;1.70;;;1.13;;
68583;SDS011;55557;49.220;11.150;2022-09-17T16:38:12;4.57;;;1.40;;
68583;SDS011;55557;49.220;11.150;2022-09-17T16:40:39;4.43;;;1.20;;
68583;SDS011;55557;49.220;11.150;2022-09-17T16:43:05;3.03;;;1.00;;
68583;SDS011;55557;49.220;11.150;2022-09-17T16:45:32;4.07;;;1.23;;
68583;SDS011;55557;49.220;11.150;2022-09-17T16:47:58;3.27;;;1.43;;
68583;SDS011;55557;49.220;11.150;2022-09-17T16:50:25;2.23;;;1.17;;
68583;SDS011;55557;49.220;11.150;2022-09-17T16:52:52;3.63;;;1.60;;
68583;SDS011;55557;49.220;11.150;2022-09-17T16:55:18;4.43;;;1.50;;
68583;SDS011;55557;49.220;11.150;2022-09-17T16:57:44;4.07;;;2.00;;
68583;SDS011;55557;49.220;11.150;2022-09-17T17:00:11;8.07;;;2.70;;
68583;SDS011;55557;49.220;11.150;2022-09-17T17:02:39;7.60;;;2.90;;
68583;SDS011;55557;49.220;11.150;2022-09-17T17:05:05;4.30;;;2.13;;
68583;SDS011;55557;49.220;11.150;2022-09-17T17:07:33;6.60;;;2.57;;
68583;SDS011;55557;49.220;11.150;2022-09-17T17:09:59;8.13;;;3.00;;
68583;SDS011;55557;49.220;11.150;2022-09-17T17:12:26;6.63;;;2.50;;
68583;SDS011;55557;49.220;11.150;2022-09-17T17:14:52;8.00;;;2.93;;
68583;SDS011;55557;49.220;11.150;2022-09-17T17:17:18;12.10;;;4.60;;
68583;SDS011;55557;49.220;11.150;2022-09-17T17:19:44;7.80;;;2.57;;
68583;SDS011;55557;49.220;11.150;2022-09-17T17:22:11;6.60;;;1.97;;
68583;SDS011;55557;49.220;11.150;2022-09-17T17:24:37;6.80;;;2.40;;
68583;SDS011;55557;49.220;11.150;2022-09-17T17:27:03;3.97;;;2.37;;
68583;SDS011;55557;49.220;11.150;2022-09-17T17:29:29;7.23;;;2.20;;
68583;SDS011;55557;49.220;11.150;2022-09-17T17:31:55;4.37;;;1.93;;
68583;SDS011;55557;49.220;11.150;2022-09-17T17:34:21;3.03;;;2.03;;
68583;SDS011;55557;49.220;11.150;2022-09-17T17:36:50;6.37;;;3.10;;
68583;SDS011;55557;49.220;11.150;2022-09-17T17:39:16;5.87;;;2.33;;
68583;SDS011;55557;49.220;11.150;2022-09-17T17:41:42;5.13;;;1.10;;
68583;SDS011;55557;49.220;11.150;2022-09-17T17:44:08;2.33;;;0.60;;
68583;SDS011;55557;49.220;11.150;2022-09-17T17:46:37;2.13;;;0.73;;